createdAt,value
2022-08-27T00:01:48.684Z,98456.03
2022-08-27T00:04:16.339Z,98462.06
2022-08-27T00:06:44.032Z,98460.41
2022-08-27T00:09:14.085Z,98460.41
2022-08-27T00:11:41.525Z,98462.72
2022-08-27T00:14:09.437Z,98455.88
2022-08-27T00:16:36.798Z,98459.81
2022-08-27T00:19:04.214Z,98466.00
2022-08-27T00:21:33.292Z,98453.13
2022-08-27T00:24:01.618Z,98463.91
2022-08-27T00:26:29.315Z,98462.47
2022-08-27T00:28:58.068Z,98467.34
2022-08-27T00:31:27.481Z,98462.31
2022-08-27T00:33:55.882Z,98463.31
2022-08-27T00:36:24.108Z,98476.84
2022-08-27T00:38:52.778Z,98481.94
2022-08-27T00:41:22.400Z,98471.78
2022-08-27T00:43:54.498Z,98472.59
2022-08-27T00:46:29.649Z,98473.41
2022-08-27T00:49:04.371Z,98474.56
2022-08-27T00:51:32.647Z,98471.28
2022-08-27T00:54:01.005Z,98469.81
2022-08-27T00:56:34.568Z,98484.34
2022-08-27T00:59:03.931Z,98477.66
2022-08-27T01:01:35.953Z,98479.16
2022-08-27T01:04:06.137Z,98479.31
2022-08-27T01:06:37.120Z,98481.78
2022-08-27T01:09:14.854Z,98478.81
2022-08-27T01:11:42.273Z,98478.03
2022-08-27T01:14:09.993Z,98475.06
2022-08-27T01:16:43.956Z,98477.69
2022-08-27T01:19:29.333Z,98475.56
2022-08-27T01:22:32.959Z,98478.84
2022-08-27T01:25:08.582Z,98484.41
2022-08-27T01:27:36.735Z,98477.69
2022-08-27T01:30:06.579Z,98479.47
2022-08-27T01:32:36.471Z,98476.56
2022-08-27T01:35:08.458Z,98473.63
2022-08-27T01:37:37.434Z,98468.88
2022-08-27T01:40:06.373Z,98454.00
2022-08-27T01:42:42.665Z,98467.91
2022-08-27T01:45:27.612Z,98480.31
2022-08-27T01:47:55.178Z,98467.91
2022-08-27T01:50:29.604Z,98473.47
2022-08-27T01:52:57.068Z,98465.44
2022-08-27T01:55:27.091Z,98476.06
2022-08-27T01:57:55.638Z,98477.06
2022-08-27T02:00:35.125Z,98479.84
2022-08-27T02:03:03.533Z,98473.94
2022-08-27T02:05:31.440Z,98478.03
2022-08-27T02:08:08.403Z,98469.69
2022-08-27T02:10:39.325Z,98472.78
2022-08-27T02:13:08.290Z,98470.03
2022-08-27T02:15:40.416Z,98460.03
2022-08-27T02:18:08.960Z,98475.91
2022-08-27T02:20:36.994Z,98477.53
2022-08-27T02:23:05.147Z,98490.59
2022-08-27T02:25:33.519Z,98510.06
2022-08-27T02:28:01.970Z,98503.84
2022-08-27T02:30:32.328Z,98510.41
2022-08-27T02:33:04.606Z,98512.34
2022-08-27T02:35:40.895Z,98525.44
2022-08-27T02:38:08.801Z,98530.50
2022-08-27T02:40:37.482Z,98528.72
2022-08-27T02:43:05.613Z,98532.63
2022-08-27T02:45:32.927Z,98524.59
2022-08-27T02:48:03.989Z,98514.97
2022-08-27T02:50:31.670Z,98520.53
2022-08-27T02:52:59.002Z,98504.19
2022-08-27T02:55:26.347Z,98500.91
2022-08-27T02:57:53.810Z,98500.91
2022-08-27T03:00:23.294Z,98498.31
2022-08-27T03:02:52.006Z,98499.13
2022-08-27T03:05:20.258Z,98491.63
2022-08-27T03:07:48.036Z,98494.56
2022-08-27T03:10:19.653Z,98488.19
2022-08-27T03:12:47.202Z,98500.59
2022-08-27T03:15:18.347Z,98492.25
2022-08-27T03:18:04.955Z,98489.16
2022-08-27T03:20:33.422Z,98498.63
2022-08-27T03:23:01.492Z,98506.97
2022-08-27T03:25:29.096Z,98501.91
2022-08-27T03:27:56.484Z,98495.84
2022-08-27T03:30:24.985Z,98493.06
2022-08-27T03:32:52.568Z,98501.41
2022-08-27T03:35:21.799Z,98495.53
2022-08-27T03:37:50.507Z,98492.41
2022-08-27T03:40:19.935Z,98497.94
2022-08-27T03:42:47.334Z,98490.13
2022-08-27T03:45:15.540Z,98489.13
2022-08-27T03:47:43.157Z,98492.75
2022-08-27T03:50:11.808Z,98493.88
2022-08-27T03:52:39.654Z,98484.72
2022-08-27T03:55:09.578Z,98486.19
2022-08-27T03:57:37.351Z,98477.72
2022-08-27T04:00:11.809Z,98475.25
2022-08-27T04:02:40.571Z,98480.97
2022-08-27T04:05:13.070Z,98468.38
2022-08-27T04:07:42.501Z,98478.84
2022-08-27T04:10:12.667Z,98476.38
2022-08-27T04:12:44.136Z,98483.88
2022-08-27T04:15:13.601Z,98481.78
2022-08-27T04:17:41.859Z,98489.13
2022-08-27T04:20:34.006Z,98488.78
2022-08-27T04:22:58.196Z,98496.78
2022-08-27T04:25:25.465Z,98495.13
2022-08-27T04:27:57.427Z,98505.25
2022-08-27T04:30:24.753Z,98506.88
2022-08-27T04:32:52.339Z,98504.09
2022-08-27T04:35:19.636Z,98503.59
2022-08-27T04:37:47.018Z,98508.50
2022-08-27T04:40:14.499Z,98516.19
2022-08-27T04:42:42.483Z,98505.28
2022-08-27T04:45:10.528Z,98509.19
2022-08-27T04:47:38.024Z,98510.00
2022-08-27T04:50:06.400Z,98510.47
2022-08-27T04:52:35.193Z,98522.59
2022-08-27T04:55:09.273Z,98526.38
2022-08-27T04:57:38.118Z,98519.53
2022-08-27T05:00:07.977Z,98521.50
2022-08-27T05:02:35.288Z,98521.66
2022-08-27T05:05:02.606Z,98525.09
2022-08-27T05:07:30.020Z,98524.59
2022-08-27T05:09:57.484Z,98525.13
2022-08-27T05:12:26.261Z,98528.34
2022-08-27T05:14:55.316Z,98527.06
2022-08-27T05:17:22.740Z,98515.97
2022-08-27T05:19:50.244Z,98513.81
2022-08-27T05:22:18.236Z,98512.22
2022-08-27T05:24:50.006Z,98523.47
2022-08-27T05:27:17.904Z,98518.72
2022-08-27T05:29:45.385Z,98516.59
2022-08-27T05:32:13.632Z,98512.53
2022-08-27T05:34:41.027Z,98514.13
2022-08-27T05:37:08.664Z,98517.72
2022-08-27T05:39:35.946Z,98523.31
2022-08-27T05:42:03.301Z,98531.00
2022-08-27T05:44:40.985Z,98523.16
2022-08-27T05:47:10.015Z,98526.91
2022-08-27T05:49:38.105Z,98519.38
2022-08-27T05:52:10.860Z,98510.19
2022-08-27T05:54:42.647Z,98515.06
2022-08-27T05:57:10.649Z,98509.97
2022-08-27T05:59:57.226Z,98511.25
2022-08-27T06:02:26.476Z,98515.03
2022-08-27T06:04:54.151Z,98524.50
2022-08-27T06:07:27.984Z,98530.75
2022-08-27T06:09:55.439Z,98538.44
2022-08-27T06:12:28.045Z,98526.50
2022-08-27T06:14:56.111Z,98526.03
2022-08-27T06:17:23.418Z,98543.03
2022-08-27T06:19:50.836Z,98553.34
2022-08-27T06:22:56.964Z,98583.44
2022-08-27T06:25:24.359Z,98610.63
2022-08-27T06:27:51.664Z,98615.03
2022-08-27T06:30:19.075Z,98614.22
2022-08-27T06:32:46.614Z,98617.00
2022-08-27T06:35:13.914Z,98627.31
2022-08-27T06:37:41.355Z,98630.59
2022-08-27T06:40:10.819Z,98641.88
2022-08-27T06:42:38.987Z,98643.84
2022-08-27T06:45:08.145Z,98649.25
2022-08-27T06:47:35.417Z,98652.47
2022-08-27T06:50:03.174Z,98647.59
2022-08-27T06:52:30.466Z,98654.97
2022-08-27T06:54:58.159Z,98650.53
2022-08-27T06:57:25.499Z,98635.31
2022-08-27T06:59:52.836Z,98623.22
2022-08-27T07:02:20.460Z,98613.88
2022-08-27T07:04:47.941Z,98605.66
2022-08-27T07:07:15.580Z,98614.00
2022-08-27T07:10:01.980Z,98607.72
2022-08-27T07:12:31.623Z,98593.75
2022-08-27T07:14:58.893Z,98587.31
2022-08-27T07:17:26.928Z,98588.41
2022-08-27T07:19:54.316Z,98586.59
2022-08-27T07:22:21.607Z,98591.66
2022-08-27T07:24:48.847Z,98581.78
2022-08-27T07:27:16.293Z,98582.56
2022-08-27T07:29:43.621Z,98581.34
2022-08-27T07:32:11.138Z,98573.59
2022-08-27T07:34:38.422Z,98577.09
2022-08-27T07:37:06.986Z,98580.13
2022-08-27T07:39:34.347Z,98573.31
2022-08-27T07:42:20.126Z,98569.84
2022-08-27T07:44:47.885Z,98577.63
2022-08-27T07:47:15.126Z,98562.97
2022-08-27T07:49:42.469Z,98561.97
2022-08-27T07:52:10.068Z,98546.06
2022-08-27T07:54:37.702Z,98545.00
2022-08-27T07:57:05.235Z,98536.31
2022-08-27T07:59:32.973Z,98531.66
2022-08-27T08:02:00.418Z,98542.22
2022-08-27T08:04:28.034Z,98545.94
2022-08-27T08:06:56.004Z,98554.41
2022-08-27T08:09:25.124Z,98564.97
2022-08-27T08:11:53.564Z,98580.81
2022-08-27T08:14:21.506Z,98593.50
2022-08-27T08:16:49.646Z,98595.66
2022-08-27T08:19:17.497Z,98587.38
2022-08-27T08:21:44.831Z,98588.53
2022-08-27T08:24:12.179Z,98586.78
2022-08-27T08:26:41.948Z,98591.69
2022-08-27T08:29:09.512Z,98598.44
2022-08-27T08:31:42.761Z,98597.03
2022-08-27T08:34:11.294Z,98592.63
2022-08-27T08:36:42.435Z,98583.56
2022-08-27T08:39:13.472Z,98575.31
2022-08-27T08:41:59.057Z,98570.66
2022-08-27T08:44:43.408Z,98572.41
2022-08-27T08:47:31.763Z,98566.13
2022-08-27T08:50:26.431Z,98561.50
2022-08-27T08:52:59.847Z,98558.56
2022-08-27T08:55:39.119Z,98561.97
2022-08-27T08:58:35.189Z,98568.84
2022-08-27T09:01:07.093Z,98567.34
2022-08-27T09:03:40.865Z,98566.97
2022-08-27T09:06:16.893Z,98556.75
2022-08-27T09:08:45.273Z,98547.69
2022-08-27T09:11:21.893Z,98542.56
2022-08-27T09:13:56.037Z,98527.44
2022-08-27T09:16:23.649Z,98533.16
2022-08-27T09:19:00.435Z,98520.47
2022-08-27T09:21:42.847Z,98525.50
2022-08-27T09:24:24.866Z,98524.06
2022-08-27T09:26:52.754Z,98529.81
2022-08-27T09:29:27.488Z,98528.63
2022-08-27T09:32:00.815Z,98535.94
2022-08-27T09:34:42.520Z,98528.97
2022-08-27T09:37:21.524Z,98545.25
2022-08-27T09:40:22.568Z,98543.38
2022-08-27T09:42:54.922Z,98539.09
2022-08-27T09:45:27.521Z,98539.19
2022-08-27T09:48:14.053Z,98532.91
2022-08-27T09:50:53.436Z,98550.59
2022-08-27T09:53:44.755Z,98550.25
2022-08-27T09:56:40.294Z,98555.50
2022-08-27T09:59:22.777Z,98557.47
2022-08-27T10:02:04.428Z,98558.75
2022-08-27T10:04:51.381Z,98563.31
2022-08-27T10:07:36.816Z,98560.28
2022-08-27T10:10:43.673Z,98553.97
2022-08-27T10:13:25.183Z,98563.19
2022-08-27T10:16:11.023Z,98564.94
2022-08-27T10:18:53.512Z,98570.63
2022-08-27T10:22:03.401Z,98562.81
2022-08-27T10:24:44.185Z,98550.56
2022-08-27T10:27:26.726Z,98550.19
2022-08-27T10:30:02.971Z,98541.91
2022-08-27T10:32:39.285Z,98543.72
2022-08-27T10:35:54.754Z,98541.06
2022-08-27T10:38:40.049Z,98535.91
2022-08-27T10:41:34.285Z,98542.41
2022-08-27T10:44:24.215Z,98534.84
2022-08-27T10:47:05.004Z,98536.09
2022-08-27T10:49:52.118Z,98524.91
2022-08-27T10:52:55.796Z,98509.31
2022-08-27T10:55:33.858Z,98515.09
2022-08-27T10:59:03.149Z,98510.31
2022-08-27T11:02:14.582Z,98514.97
2022-08-27T11:04:52.632Z,98516.06
2022-08-27T11:07:33.309Z,98513.34
2022-08-27T11:10:04.816Z,98515.47
2022-08-27T11:12:42.589Z,98514.72
2022-08-27T11:15:32.268Z,98507.25
2022-08-27T11:18:19.195Z,98504.09
2022-08-27T11:21:10.857Z,98508.78
2022-08-27T11:23:47.262Z,98517.72
2022-08-27T11:26:14.822Z,98513.03
2022-08-27T11:28:58.843Z,98506.34
2022-08-27T11:31:43.710Z,98519.66
2022-08-27T11:34:35.120Z,98504.81
2022-08-27T11:37:04.923Z,98508.44
2022-08-27T11:40:04.048Z,98510.50
2022-08-27T11:42:42.488Z,98505.72
2022-08-27T11:45:34.675Z,98505.44
2022-08-27T11:48:37.488Z,98501.22
2022-08-27T11:51:12.897Z,98504.91
2022-08-27T11:53:57.221Z,98503.81
2022-08-27T11:56:45.507Z,98499.84
2022-08-27T11:59:27.133Z,98495.06
2022-08-27T12:02:00.571Z,98489.81
2022-08-27T12:04:39.828Z,98485.38
2022-08-27T12:07:17.499Z,98489.81
2022-08-27T12:09:56.747Z,98480.97
2022-08-27T12:12:48.115Z,98475.78
2022-08-27T12:15:34.220Z,98466.22
2022-08-27T12:18:36.888Z,98469.38
2022-08-27T12:21:40.917Z,98465.69
2022-08-27T12:24:44.482Z,98464.78
2022-08-27T12:27:28.318Z,98464.03
2022-08-27T12:30:34.637Z,98462.44
2022-08-27T12:33:36.848Z,98456.44
2022-08-27T12:36:17.493Z,98452.03
2022-08-27T12:38:59.685Z,98450.50
2022-08-27T12:41:44.228Z,98451.66
2022-08-27T12:44:33.743Z,98446.88
2022-08-27T12:47:16.271Z,98449.31
2022-08-27T12:49:55.783Z,98444.97
2022-08-27T12:52:42.063Z,98445.69
2022-08-27T12:55:12.505Z,98446.06
2022-08-27T12:58:31.756Z,98438.47
2022-08-27T13:01:43.161Z,98441.34
2022-08-27T13:04:24.874Z,98439.34
2022-08-27T13:06:52.780Z,98434.28
2022-08-27T13:09:33.462Z,98432.31
2022-08-27T13:12:04.787Z,98428.41
2022-08-27T13:14:41.583Z,98434.81
2022-08-27T13:17:19.154Z,98423.97
2022-08-27T13:19:59.685Z,98425.13
2022-08-27T13:22:32.583Z,98430.31
2022-08-27T13:25:00.357Z,98429.84
2022-08-27T13:27:33.197Z,98433.19
2022-08-27T13:30:08.182Z,98439.22
2022-08-27T13:32:38.378Z,98434.00
2022-08-27T13:35:07.063Z,98428.03
2022-08-27T13:37:36.209Z,98431.28
2022-08-27T13:40:05.314Z,98429.31
2022-08-27T13:42:33.491Z,98422.34
2022-08-27T13:45:07.853Z,98434.38
2022-08-27T13:47:46.139Z,98435.19
2022-08-27T13:50:25.977Z,98420.72
2022-08-27T13:53:25.327Z,98425.06
2022-08-27T13:55:54.289Z,98425.06
2022-08-27T13:58:31.108Z,98425.06
2022-08-27T14:01:09.270Z,98425.06
2022-08-27T14:03:50.167Z,98420.28
2022-08-27T14:06:53.702Z,98423.06
2022-08-27T14:09:28.786Z,98425.06
2022-08-27T14:12:05.832Z,98417.75
2022-08-27T14:14:41.715Z,98414.94
2022-08-27T14:17:27.909Z,98412.56
2022-08-27T14:20:05.911Z,98419.09
2022-08-27T14:22:36.493Z,98414.66
2022-08-27T14:25:04.400Z,98413.03
2022-08-27T14:27:32.122Z,98418.72
2022-08-27T14:29:59.553Z,98415.91
2022-08-27T14:32:26.978Z,98417.53
2022-08-27T14:34:54.456Z,98416.72
2022-08-27T14:37:21.895Z,98412.69
2022-08-27T14:39:49.255Z,98416.31
2022-08-27T14:42:17.783Z,98418.28
2022-08-27T14:44:45.469Z,98424.72
2022-08-27T14:47:16.167Z,98417.91
2022-08-27T14:49:46.348Z,98421.91
2022-08-27T14:52:17.785Z,98423.50
2022-08-27T14:54:45.161Z,98420.28
2022-08-27T14:57:13.555Z,98421.09
2022-08-27T14:59:41.897Z,98425.50
2022-08-27T15:02:14.146Z,98423.06
2022-08-27T15:04:42.370Z,98420.28
2022-08-27T15:07:14.820Z,98415.84
2022-08-27T15:09:42.703Z,98416.59
2022-08-27T15:12:16.881Z,98420.09
2022-08-27T15:17:49.809Z,98426.16
2022-08-27T15:20:20.066Z,98425.69
2022-08-27T15:22:52.271Z,98429.69
2022-08-27T15:25:21.267Z,98420.47
2022-08-27T15:27:49.565Z,98425.69
2022-08-27T15:30:27.092Z,98427.72
2022-08-27T15:32:55.630Z,98434.91
2022-08-27T15:35:27.046Z,98438.09
2022-08-27T15:37:57.041Z,98432.84
2022-08-27T15:40:26.913Z,98429.25
2022-08-27T15:43:06.024Z,98429.97
2022-08-27T15:45:35.390Z,98433.13
2022-08-27T15:48:03.174Z,98427.09
2022-08-27T15:53:37.919Z,98435.03
2022-08-27T15:56:11.026Z,98436.91
2022-08-27T15:58:41.336Z,98437.72
2022-08-27T16:01:17.523Z,98446.50
2022-08-27T16:03:47.058Z,98449.22
2022-08-27T16:06:20.992Z,98439.56
2022-08-27T16:09:01.934Z,98430.97
2022-08-27T16:15:08.468Z,98434.97
2022-08-27T16:18:01.675Z,98420.41
2022-08-27T16:20:33.084Z,98423.13
2022-08-27T16:34:56.286Z,98432.06
2022-08-27T16:37:29.938Z,98427.56
2022-08-27T16:40:03.934Z,98435.97
2022-08-27T16:42:36.483Z,98439.47
2022-08-27T16:48:01.279Z,98463.41
2022-08-27T17:03:52.108Z,98460.59
2022-08-27T17:16:48.143Z,98472.53
2022-08-27T17:19:19.493Z,98466.75
2022-08-27T17:21:49.470Z,98472.16
2022-08-27T17:24:20.083Z,98472.41
2022-08-27T17:26:49.264Z,98470.22
2022-08-27T17:29:19.433Z,98496.59
2022-08-27T17:31:54.331Z,98491.59
2022-08-27T17:34:25.555Z,98487.78
2022-08-27T17:37:19.003Z,98491.72
2022-08-27T17:39:48.981Z,98498.50
2022-08-27T17:42:18.182Z,98493.16
2022-08-27T17:44:48.283Z,98491.88
2022-08-27T17:47:21.151Z,98500.84
2022-08-27T17:49:49.837Z,98502.00
2022-08-27T17:52:23.534Z,98509.03
2022-08-27T17:54:58.021Z,98516.50
2022-08-27T17:57:40.466Z,98511.94
2022-08-27T18:00:13.157Z,98514.16
2022-08-27T18:02:47.268Z,98521.63
2022-08-27T18:05:19.182Z,98524.19
2022-08-27T18:07:48.042Z,98532.94
2022-08-27T18:10:23.269Z,98525.16
2022-08-27T18:12:55.802Z,98519.06
2022-08-27T18:15:30.448Z,98535.13
2022-08-27T18:18:00.392Z,98530.25
2022-08-27T18:20:31.399Z,98527.34
2022-08-27T18:23:00.357Z,98532.00
2022-08-27T18:25:35.791Z,98542.38
2022-08-27T18:28:13.672Z,98549.94
2022-08-27T18:30:44.722Z,98551.44
2022-08-27T18:33:14.064Z,98537.38
2022-08-27T18:35:44.629Z,98548.53
2022-08-27T18:38:13.941Z,98547.63
2022-08-27T18:40:49.468Z,98545.00
2022-08-27T18:43:21.454Z,98551.41
2022-08-27T18:45:49.454Z,98550.13
2022-08-27T18:48:24.307Z,98548.38
2022-08-27T18:51:02.381Z,98559.53
2022-08-27T18:53:34.902Z,98559.09
2022-08-27T18:56:06.917Z,98561.75
2022-08-27T18:58:35.712Z,98558.84
2022-08-27T19:01:11.152Z,98568.38
2022-08-27T19:03:48.060Z,98563.50
2022-08-27T19:06:23.076Z,98562.41
2022-08-27T19:08:55.169Z,98565.91
2022-08-27T19:11:26.766Z,98574.16
2022-08-27T19:13:58.293Z,98574.50
2022-08-27T19:16:49.511Z,98570.63
2022-08-27T19:19:22.742Z,98570.31
2022-08-27T19:21:58.592Z,98569.81
2022-08-27T19:24:31.992Z,98562.00
2022-08-27T19:27:05.755Z,98571.53
2022-08-27T19:29:35.867Z,98569.44
2022-08-27T19:32:04.372Z,98566.38
2022-08-27T19:34:34.833Z,98568.59
2022-08-27T19:37:05.684Z,98575.44
2022-08-27T19:39:39.189Z,98569.41
2022-08-27T19:42:07.938Z,98569.75
2022-08-27T19:44:37.423Z,98575.97
2022-08-27T19:47:11.022Z,98579.91
2022-08-27T19:49:40.528Z,98566.16
2022-08-27T19:52:09.678Z,98554.19
2022-08-27T19:54:56.957Z,98570.34
2022-08-27T19:57:26.138Z,98568.09
2022-08-27T19:59:54.824Z,98570.88
2022-08-27T20:02:23.546Z,98559.59
2022-08-27T20:05:16.438Z,98547.50
2022-08-27T20:07:40.826Z,98560.03
2022-08-27T20:10:09.520Z,98563.00
2022-08-27T20:12:44.486Z,98582.19
2022-08-27T20:15:14.554Z,98578.94
2022-08-27T20:17:45.542Z,98570.88
2022-08-27T20:20:16.008Z,98565.66
2022-08-27T20:22:48.393Z,98555.31
2022-08-27T20:25:22.136Z,98545.84
2022-08-27T20:27:51.587Z,98552.88
2022-08-27T20:30:27.058Z,98548.31
2022-08-27T20:32:56.341Z,98548.66
2022-08-27T20:35:27.028Z,98533.44
2022-08-27T20:38:01.208Z,98533.63
2022-08-27T20:40:36.662Z,98537.34
2022-08-27T20:43:08.504Z,98544.91
2022-08-27T20:45:41.059Z,98550.84
2022-08-27T20:48:10.610Z,98531.84
2022-08-27T20:50:40.885Z,98535.47
2022-08-27T20:53:09.500Z,98546.59
2022-08-27T20:55:42.340Z,98551.22
2022-08-27T20:58:32.596Z,98543.91
2022-08-27T21:01:01.295Z,98549.22
2022-08-27T21:03:28.712Z,98558.03
2022-08-27T21:05:56.868Z,98561.19
2022-08-27T21:08:24.577Z,98559.03
2022-08-27T21:10:57.027Z,98565.78
2022-08-27T21:13:26.749Z,98573.50
2022-08-27T21:15:56.301Z,98571.41
2022-08-27T21:18:29.886Z,98576.63
2022-08-27T21:21:00.021Z,98580.09
2022-08-27T21:23:29.565Z,98578.81
2022-08-27T21:26:24.188Z,98578.66
2022-08-27T21:28:55.869Z,98580.13
2022-08-27T21:31:25.284Z,98589.81
2022-08-27T21:33:54.278Z,98583.28
2022-08-27T21:36:22.807Z,98581.28
2022-08-27T21:38:50.845Z,98576.06
2022-08-27T21:41:20.385Z,98570.53
2022-08-27T21:43:48.441Z,98578.06
2022-08-27T21:46:16.946Z,98582.81
2022-08-27T21:48:44.566Z,98589.53
2022-08-27T21:51:20.036Z,98584.97
2022-08-27T21:53:52.991Z,98591.34
2022-08-27T21:56:20.678Z,98584.50
2022-08-27T21:58:48.524Z,98586.47
2022-08-27T22:01:16.097Z,98583.03
2022-08-27T22:03:50.868Z,98578.97
2022-08-27T22:06:20.783Z,98578.00
2022-08-27T22:08:48.958Z,98578.13
2022-08-27T22:11:21.999Z,98581.28
2022-08-27T22:13:52.724Z,98578.00
2022-08-27T22:16:21.168Z,98579.31
2022-08-27T22:18:50.889Z,98566.41
2022-08-27T22:21:23.479Z,98578.00
2022-08-27T22:23:51.577Z,98567.88
2022-08-27T22:26:21.113Z,98570.34
2022-08-27T22:28:49.541Z,98561.84
2022-08-27T22:31:18.034Z,98563.31
2022-08-27T22:33:45.953Z,98575.25
2022-08-27T22:36:14.180Z,98577.22
2022-08-27T22:38:43.032Z,98567.22
2022-08-27T22:41:10.607Z,98569.38
2022-08-27T22:43:38.321Z,98570.84
2022-08-27T22:46:06.255Z,98573.16
2022-08-27T22:48:34.911Z,98583.00
2022-08-27T22:51:03.230Z,98575.78
2022-08-27T22:53:31.347Z,98575.28
2022-08-27T22:56:00.239Z,98580.53
2022-08-27T22:58:27.910Z,98582.50
2022-08-27T23:00:56.872Z,98578.75
2022-08-27T23:03:26.336Z,98593.47
2022-08-27T23:05:55.457Z,98585.28
2022-08-27T23:08:24.615Z,98594.78
2022-08-27T23:10:53.233Z,98596.25
2022-08-27T23:13:21.872Z,98604.09
2022-08-27T23:15:49.945Z,98596.13
2022-08-27T23:18:18.189Z,98600.19
2022-08-27T23:20:45.863Z,98610.34
2022-08-27T23:23:13.349Z,98605.75
2022-08-27T23:25:59.857Z,98611.31
2022-08-27T23:28:27.580Z,98612.66
2022-08-27T23:30:56.207Z,98622.28
2022-08-27T23:33:24.905Z,98614.75
2022-08-27T23:35:55.612Z,98615.44
2022-08-27T23:38:23.748Z,98606.41
2022-08-27T23:40:52.835Z,98612.31
2022-08-27T23:43:21.713Z,98624.41
2022-08-27T23:45:49.076Z,98626.88
2022-08-27T23:48:16.930Z,98627.34
2022-08-27T23:50:47.254Z,98619.97
2022-08-27T23:53:15.660Z,98616.69
2022-08-27T23:55:43.612Z,98629.94
2022-08-27T23:58:18.669Z,98610.13
